Time;durP1;ratioP1;P1;durP2;ratioP2;P2;SDS_P1;SDS_P2;PMS_P1;PMS_P2;Temp;Humidity;BMP_temperature;BMP_pressure;BME280_temperature;BME280_humidity;BME280_pressure;Samples;Min_cycle;Max_cycle;Signal;HPM_P1;HPM_P2
2022/12/22 03:28:17;;;;;;;1.77;0.85;;;;;;;;;;5093453;28;20043;-42
2022/12/22 03:30:43;;;;;;;1.30;1.08;;;;;;;;;;5082830;28;20016;-47
2022/12/22 03:33:09;;;;;;;1.58;1.17;;;;;;;;;;5093292;28;20062;-42
2022/12/22 03:35:35;;;;;;;2.00;0.90;;;;;;;;;;5093602;28;20092;-42
2022/12/22 03:38:02;;;;;;;1.52;0.80;;;;;;;;;;5092473;28;20025;-43
2022/12/22 03:40:29;;;;;;;2.05;1.02;;;;;;;;;;5089720;28;20077;-42
2022/12/22 03:48:24;;;;;;;1.73;0.88;;;;;;;;;;5092679;28;20073;-42
2022/12/22 03:50:50;;;;;;;1.85;1.00;;;;;;;;;;5066792;28;20085;-42
2022/12/22 03:53:16;;;;;;;1.20;0.93;;;;;;;;;;5092965;28;20393;-42
2022/12/22 03:55:42;;;;;;;1.58;0.57;;;;;;;;;;5092483;28;20132;-46
2022/12/22 03:58:08;;;;;;;1.85;1.00;;;;;;;;;;5092246;28;20111;-42
2022/12/22 04:00:34;;;;;;;1.38;0.82;;;;;;;;;;5088821;28;20024;-43
2022/12/22 04:03:00;;;;;;;2.20;0.80;;;;;;;;;;5091670;28;20020;-42
2022/12/22 04:05:26;;;;;;;1.05;0.63;;;;;;;;;;5093457;28;20024;-42
2022/12/22 04:07:52;;;;;;;1.20;0.80;;;;;;;;;;5090874;28;20082;-42
2022/12/22 04:13:03;;;;;;;1.50;0.82;;;;;;;;;;5090627;28;20035;-43
2022/12/22 04:15:30;;;;;;;1.55;0.80;;;;;;;;;;5093278;28;20020;-42
2022/12/22 04:17:57;;;;;;;1.90;0.70;;;;;;;;;;5087083;28;20028;-43
2022/12/22 04:20:25;;;;;;;1.35;0.95;;;;;;;;;;5092757;28;20054;-42
2022/12/22 04:22:52;;;;;;;1.23;0.70;;;;;;;;;;5089809;28;20088;-42
2022/12/22 04:25:18;;;;;;;1.38;0.70;;;;;;;;;;5092762;28;20027;-42
2022/12/22 04:27:44;;;;;;;0.80;0.68;;;;;;;;;;5085773;28;20020;-46
2022/12/22 04:30:10;;;;;;;1.85;1.05;;;;;;;;;;5092313;28;20417;-43
2022/12/22 04:32:36;;;;;;;2.17;0.80;;;;;;;;;;5091860;28;20365;-42
2022/12/22 04:35:02;;;;;;;1.75;0.85;;;;;;;;;;5091428;28;20027;-43
2022/12/22 04:37:28;;;;;;;1.92;0.70;;;;;;;;;;5088226;28;20016;-42
2022/12/22 04:39:54;;;;;;;1.15;0.80;;;;;;;;;;5091970;28;20404;-42
2022/12/22 04:42:20;;;;;;;1.02;0.60;;;;;;;;;;5099555;28;20074;-44
2022/12/22 04:44:46;;;;;;;1.38;0.70;;;;;;;;;;5090478;28;20412;-42
2022/12/22 04:47:12;;;;;;;1.20;0.60;;;;;;;;;;5089788;28;20123;-42
2022/12/22 04:49:38;;;;;;;1.38;0.60;;;;;;;;;;5092200;28;20078;-43
2022/12/22 04:52:04;;;;;;;1.70;0.70;;;;;;;;;;5087126;28;20790;-43
2022/12/22 04:54:30;;;;;;;1.73;0.80;;;;;;;;;;5091200;28;20527;-43
2022/12/22 04:56:56;;;;;;;1.83;0.65;;;;;;;;;;5090799;28;20028;-42
2022/12/22 04:59:22;;;;;;;1.38;0.75;;;;;;;;;;5092276;28;20077;-44
2022/12/22 05:01:48;;;;;;;1.42;0.90;;;;;;;;;;5091175;28;20027;-44
2022/12/22 05:04:14;;;;;;;0.80;0.57;;;;;;;;;;5089126;28;20032;-42
2022/12/22 05:06:40;;;;;;;1.65;0.60;;;;;;;;;;5085793;28;20017;-44
2022/12/22 05:09:06;;;;;;;1.25;0.50;;;;;;;;;;5090910;28;20020;-42
2022/12/22 05:11:32;;;;;;;1.80;0.80;;;;;;;;;;5092223;28;20457;-43
2022/12/22 05:13:58;;;;;;;1.13;0.65;;;;;;;;;;5090460;28;20024;-43
2022/12/22 05:16:23;;;;;;;3.03;0.75;;;;;;;;;;5086993;28;20385;-43
2022/12/22 05:18:49;;;;;;;0.90;0.80;;;;;;;;;;5090399;28;20112;-42
2022/12/22 05:21:17;;;;;;;1.70;0.88;;;;;;;;;;5091898;28;20023;-42
2022/12/22 05:23:43;;;;;;;1.15;0.68;;;;;;;;;;5090827;28;20463;-47
2022/12/22 05:26:10;;;;;;;1.05;0.60;;;;;;;;;;5087619;28;20028;-42
2022/12/22 05:28:36;;;;;;;1.27;0.77;;;;;;;;;;5091236;28;20032;-42
2022/12/22 05:31:06;;;;;;;3.92;0.95;;;;;;;;;;5090190;28;20031;-43
2022/12/22 05:33:32;;;;;;;1.25;0.50;;;;;;;;;;5090901;28;20036;-42
2022/12/22 05:35:58;;;;;;;0.95;0.82;;;;;;;;;;5086313;28;20031;-43
2022/12/22 05:38:24;;;;;;;0.68;0.40;;;;;;;;;;5089836;28;20457;-42
2022/12/22 05:40:50;;;;;;;1.15;0.70;;;;;;;;;;5084307;28;20067;-42
2022/12/22 05:43:16;;;;;;;1.00;0.60;;;;;;;;;;5090612;28;20048;-42
2022/12/22 05:45:45;;;;;;;1.17;0.57;;;;;;;;;;5090370;28;20027;-46
2022/12/22 05:48:12;;;;;;;1.55;0.50;;;;;;;;;;5090585;28;20107;-42
2022/12/22 05:50:38;;;;;;;1.05;0.47;;;;;;;;;;5091327;28;20027;-45
2022/12/22 05:53:05;;;;;;;1.02;0.40;;;;;;;;;;5085497;28;20473;-42
2022/12/22 05:55:31;;;;;;;0.60;0.40;;;;;;;;;;5090385;28;20492;-43
2022/12/22 05:58:00;;;;;;;0.73;0.70;;;;;;;;;;5084875;28;20028;-44
2022/12/22 06:00:26;;;;;;;0.60;0.40;;;;;;;;;;5087308;28;20024;-43
2022/12/22 06:02:52;;;;;;;0.77;0.50;;;;;;;;;;5089851;28;20084;-42
2022/12/22 06:05:19;;;;;;;0.68;0.50;;;;;;;;;;5090958;28;20509;-42
2022/12/22 06:07:45;;;;;;;2.47;0.75;;;;;;;;;;5083353;28;20141;-45
2022/12/22 06:10:11;;;;;;;1.02;0.50;;;;;;;;;;5090935;28;20040;-42
2022/12/22 06:12:38;;;;;;;0.90;0.50;;;;;;;;;;5090794;28;20028;-42
2022/12/22 06:15:04;;;;;;;1.25;0.70;;;;;;;;;;5080905;28;20016;-43
2022/12/22 06:17:30;;;;;;;0.50;0.50;;;;;;;;;;5086700;28;20020;-42
2022/12/22 06:19:56;;;;;;;2.03;1.13;;;;;;;;;;5089351;28;20028;-42
2022/12/22 06:22:22;;;;;;;1.38;0.60;;;;;;;;;;5101184;28;20469;-42
2022/12/22 06:24:48;;;;;;;0.85;0.60;;;;;;;;;;5089207;28;20439;-43
2022/12/22 06:27:14;;;;;;;1.48;0.60;;;;;;;;;;5089682;28;20026;-42
2022/12/22 06:29:40;;;;;;;2.05;0.68;;;;;;;;;;5089523;28;20489;-46
2022/12/22 06:32:06;;;;;;;3.70;0.60;;;;;;;;;;5088587;28;20016;-42
2022/12/22 06:34:32;;;;;;;1.27;0.82;;;;;;;;;;5087027;28;20544;-44
2022/12/22 06:36:58;;;;;;;0.63;0.50;;;;;;;;;;5088725;28;20132;-42
2022/12/22 06:39:24;;;;;;;0.90;0.60;;;;;;;;;;5090599;28;20043;-43
2022/12/22 06:44:34;;;;;;;3.15;1.27;;;;;;;;;;5084285;28;20047;-43
2022/12/22 06:47:00;;;;;;;3.20;1.25;;;;;;;;;;5088561;28;20020;-43
2022/12/22 06:49:26;;;;;;;1.35;0.75;;;;;;;;;;5090025;28;20028;-42
2022/12/22 06:51:52;;;;;;;1.35;0.70;;;;;;;;;;5089348;28;20036;-44
2022/12/22 06:54:18;;;;;;;1.38;0.70;;;;;;;;;;5086103;28;20036;-42
2022/12/22 06:56:44;;;;;;;1.05;0.73;;;;;;;;;;5088300;28;20061;-46
2022/12/22 06:59:10;;;;;;;2.30;1.15;;;;;;;;;;5090248;28;20028;-42
2022/12/22 07:01:36;;;;;;;2.35;0.65;;;;;;;;;;5090703;28;20027;-42
2022/12/22 07:04:02;;;;;;;2.33;0.98;;;;;;;;;;5083924;28;20017;-44
2022/12/22 07:06:28;;;;;;;0.80;0.60;;;;;;;;;;5086732;28;20028;-42
2022/12/22 07:08:54;;;;;;;2.17;0.85;;;;;;;;;;5088067;28;20469;-43
2022/12/22 07:11:20;;;;;;;1.70;0.80;;;;;;;;;;5092277;28;20070;-42
2022/12/22 07:13:46;;;;;;;1.27;0.47;;;;;;;;;;5092271;28;20021;-43
2022/12/22 07:16:12;;;;;;;1.98;0.50;;;;;;;;;;5093823;28;20373;-42
2022/12/22 07:18:40;;;;;;;2.88;0.50;;;;;;;;;;5093496;28;20028;-44
2022/12/22 07:21:07;;;;;;;1.40;0.40;;;;;;;;;;5093172;28;20031;-43
2022/12/22 07:23:33;;;;;;;2.20;0.88;;;;;;;;;;5090596;28;20023;-43
2022/12/22 07:26:00;;;;;;;4.10;1.02;;;;;;;;;;5092931;28;20473;-43
2022/12/22 07:28:26;;;;;;;6.68;0.90;;;;;;;;;;5093143;28;20073;-43
2022/12/22 07:30:52;;;;;;;2.58;0.73;;;;;;;;;;5092497;28;20027;-44
2022/12/22 07:33:18;;;;;;;1.90;0.73;;;;;;;;;;5089535;28;20035;-43
2022/12/22 07:35:45;;;;;;;5.55;0.77;;;;;;;;;;5092668;28;20078;-45
2022/12/22 07:38:11;;;;;;;1.85;0.65;;;;;;;;;;5091829;28;20382;-42
2022/12/22 07:40:37;;;;;;;2.85;0.93;;;;;;;;;;5088567;28;20059;-42
2022/12/22 07:43:03;;;;;;;1.88;0.77;;;;;;;;;;5083932;28;20457;-43
2022/12/22 07:45:29;;;;;;;4.72;0.60;;;;;;;;;;5092729;28;20039;-42
2022/12/22 07:47:58;;;;;;;2.95;0.90;;;;;;;;;;5091081;28;20020;-43
2022/12/22 07:50:24;;;;;;;2.63;0.60;;;;;;;;;;5093470;28;20028;-42
2022/12/22 07:52:57;;;;;;;2.17;0.95;;;;;;;;;;5091312;28;20024;-43
2022/12/22 07:55:24;;;;;;;2.22;0.63;;;;;;;;;;5092152;28;20048;-41
2022/12/22 07:57:50;;;;;;;1.77;0.60;;;;;;;;;;5091762;28;20024;-41
2022/12/22 08:00:16;;;;;;;2.03;0.80;;;;;;;;;;5092284;28;20032;-42
2022/12/22 08:02:44;;;;;;;2.70;0.63;;;;;;;;;;5092161;28;20028;-47
2022/12/22 08:05:10;;;;;;;2.22;0.80;;;;;;;;;;5079793;28;20027;-42
2022/12/22 08:07:36;;;;;;;1.13;0.55;;;;;;;;;;5092358;28;20024;-44
2022/12/22 08:10:02;;;;;;;1.27;0.45;;;;;;;;;;5092314;28;20028;-42
2022/12/22 08:12:29;;;;;;;3.28;1.08;;;;;;;;;;5092693;28;20027;-42
2022/12/22 08:14:55;;;;;;;6.13;1.10;;;;;;;;;;5076337;28;20035;-42
2022/12/22 08:17:20;;;;;;;1.63;0.68;;;;;;;;;;5078938;28;20028;-46
2022/12/22 08:19:47;;;;;;;3.10;0.95;;;;;;;;;;5085986;28;20379;-42
2022/12/22 08:22:13;;;;;;;2.53;0.85;;;;;;;;;;5091083;28;20031;-45
2022/12/22 08:24:39;;;;;;;2.58;0.77;;;;;;;;;;5086430;28;20028;-43
2022/12/22 08:27:07;;;;;;;2.85;0.93;;;;;;;;;;5084616;28;20024;-43
2022/12/22 08:29:41;;;;;;;2.15;0.80;;;;;;;;;;5081030;28;20082;-43
2022/12/22 08:32:07;;;;;;;2.00;0.68;;;;;;;;;;5080082;28;20139;-42
2022/12/22 08:34:33;;;;;;;3.22;0.80;;;;;;;;;;5084813;28;20077;-43
2022/12/22 08:37:02;;;;;;;1.63;0.80;;;;;;;;;;5094136;28;20061;-44
2022/12/22 08:39:30;;;;;;;2.13;0.93;;;;;;;;;;5088290;28;20027;-43
2022/12/22 08:41:57;;;;;;;2.95;1.30;;;;;;;;;;5092756;28;20099;-44
2022/12/22 08:44:24;;;;;;;3.85;0.75;;;;;;;;;;5090815;28;20055;-42
2022/12/22 08:46:51;;;;;;;3.28;0.70;;;;;;;;;;5099743;28;20031;-44
2022/12/22 08:49:17;;;;;;;2.55;0.60;;;;;;;;;;5090818;28;20071;-43
2022/12/22 08:51:43;;;;;;;6.00;1.92;;;;;;;;;;5092676;28;20027;-43
2022/12/22 08:54:09;;;;;;;4.32;1.25;;;;;;;;;;5086607;28;20544;-42
2022/12/22 08:56:35;;;;;;;1.67;0.77;;;;;;;;;;5099842;28;20052;-42
2022/12/22 08:59:06;;;;;;;1.88;0.65;;;;;;;;;;5081931;28;20435;-43
2022/12/22 09:01:33;;;;;;;1.58;0.70;;;;;;;;;;5095149;28;20020;-43
2022/12/22 09:03:59;;;;;;;1.77;0.70;;;;;;;;;;5088584;28;20040;-42
2022/12/22 09:06:25;;;;;;;1.63;0.80;;;;;;;;;;5088357;28;20480;-42
2022/12/22 09:08:59;;;;;;;4.03;1.08;;;;;;;;;;5086312;28;20039;-42
2022/12/22 09:11:25;;;;;;;2.10;0.55;;;;;;;;;;5093309;28;20077;-42
2022/12/22 09:13:52;;;;;;;3.08;0.85;;;;;;;;;;5078926;28;20036;-43
2022/12/22 09:16:18;;;;;;;2.53;0.80;;;;;;;;;;5093680;28;20049;-43
2022/12/22 09:18:44;;;;;;;1.67;0.90;;;;;;;;;;5087738;28;20393;-42
2022/12/22 09:21:10;;;;;;;3.22;1.08;;;;;;;;;;5092760;28;20047;-42
2022/12/22 09:23:36;;;;;;;1.88;0.98;;;;;;;;;;5076379;28;20041;-43
2022/12/22 09:26:09;;;;;;;1.98;0.77;;;;;;;;;;5085529;28;20050;-43
2022/12/22 09:28:35;;;;;;;1.63;0.80;;;;;;;;;;5085326;28;20040;-43
2022/12/22 09:31:01;;;;;;;7.00;1.38;;;;;;;;;;5090727;28;20032;-42
2022/12/22 09:33:27;;;;;;;3.38;1.00;;;;;;;;;;5082223;28;20037;-43
2022/12/22 09:35:53;;;;;;;2.75;0.75;;;;;;;;;;5101746;28;20019;-42
2022/12/22 09:38:19;;;;;;;4.07;0.75;;;;;;;;;;5084351;28;20037;-43
2022/12/22 09:40:46;;;;;;;3.03;0.80;;;;;;;;;;5088433;28;20024;-42
2022/12/22 09:43:15;;;;;;;3.38;0.88;;;;;;;;;;5081593;28;20029;-43
2022/12/22 09:45:41;;;;;;;2.75;0.93;;;;;;;;;;5093190;28;20023;-45
2022/12/22 09:48:10;;;;;;;3.28;0.93;;;;;;;;;;5087932;28;20020;-42
2022/12/22 09:50:38;;;;;;;2.92;1.08;;;;;;;;;;5098432;28;20036;-42
2022/12/22 09:53:06;;;;;;;2.15;0.82;;;;;;;;;;5078368;28;20095;-43
2022/12/22 09:55:32;;;;;;;2.85;0.88;;;;;;;;;;5091251;28;20040;-42
2022/12/22 09:57:58;;;;;;;2.50;0.70;;;;;;;;;;5079998;28;20361;-44
2022/12/22 10:00:25;;;;;;;5.20;1.17;;;;;;;;;;5096886;28;20089;-42
2022/12/22 10:03:10;;;;;;;3.42;0.95;;;;;;;;;;5086737;28;20486;-42
2022/12/22 10:05:42;;;;;;;3.35;1.15;;;;;;;;;;5096953;28;20032;-42
2022/12/22 10:08:12;;;;;;;3.10;0.85;;;;;;;;;;5086140;28;20028;-42
2022/12/22 10:10:38;;;;;;;3.85;0.60;;;;;;;;;;5092666;28;20036;-43
2022/12/22 10:13:05;;;;;;;2.72;0.57;;;;;;;;;;5086080;28;20123;-42
2022/12/22 10:15:36;;;;;;;3.58;0.88;;;;;;;;;;5094014;28;20032;-42
2022/12/22 10:18:09;;;;;;;2.80;0.77;;;;;;;;;;5084774;28;20091;-42
2022/12/22 10:20:38;;;;;;;2.85;0.70;;;;;;;;;;5095531;28;20186;-44
2022/12/22 10:23:24;;;;;;;2.35;0.88;;;;;;;;;;5072505;28;20021;-43
2022/12/22 10:26:19;;;;;;;1.77;0.57;;;;;;;;;;5088891;28;20036;-42
2022/12/22 10:28:50;;;;;;;5.07;1.13;;;;;;;;;;5018231;28;20075;-43
2022/12/22 10:31:26;;;;;;;4.50;0.75;;;;;;;;;;5035965;28;20025;-43
2022/12/22 10:33:54;;;;;;;4.47;0.90;;;;;;;;;;5023016;28;20120;-44
2022/12/22 10:36:23;;;;;;;6.95;1.80;;;;;;;;;;5036372;28;20017;-43
2022/12/22 10:38:57;;;;;;;3.60;1.20;;;;;;;;;;5020108;28;20455;-43
2022/12/22 10:41:24;;;;;;;3.97;0.70;;;;;;;;;;5029167;28;20677;-43
2022/12/22 10:43:58;;;;;;;2.30;0.95;;;;;;;;;;5023616;28;20514;-43
2022/12/22 10:46:30;;;;;;;3.30;1.08;;;;;;;;;;5035757;28;20437;-44
2022/12/22 10:49:07;;;;;;;6.22;1.60;;;;;;;;;;5024982;28;20037;-44
2022/12/22 10:51:33;;;;;;;6.70;2.30;;;;;;;;;;5037335;28;20150;-44
2022/12/22 10:53:59;;;;;;;3.63;0.80;;;;;;;;;;5029265;28;20029;-44
2022/12/22 10:56:27;;;;;;;2.10;0.85;;;;;;;;;;5013243;28;20050;-44
2022/12/22 10:58:54;;;;;;;2.67;1.13;;;;;;;;;;5009456;28;20029;-43
2022/12/22 11:01:24;;;;;;;2.63;0.60;;;;;;;;;;5008114;28;20029;-44
2022/12/22 11:03:50;;;;;;;4.32;1.23;;;;;;;;;;5009846;28;20054;-43
2022/12/22 11:06:17;;;;;;;3.35;0.70;;;;;;;;;;5037345;28;20116;-46
2022/12/22 11:08:43;;;;;;;7.50;1.20;;;;;;;;;;5048518;28;20535;-44
2022/12/22 11:11:14;;;;;;;1.30;0.65;;;;;;;;;;5057435;28;20037;-44
2022/12/22 11:13:47;;;;;;;4.43;0.85;;;;;;;;;;5043966;28;20025;-44
2022/12/22 11:16:16;;;;;;;2.75;0.75;;;;;;;;;;5053311;28;20490;-44
2022/12/22 11:18:48;;;;;;;5.25;1.10;;;;;;;;;;5055597;28;20466;-44
2022/12/22 11:21:14;;;;;;;;;;;;;;;;;;5048803;28;20082;-46
2022/12/22 11:23:59;;;;;;;1.80;0.68;;;;;;;;;;5028768;28;19909;-50
2022/12/22 11:26:49;;;;;;;4.10;0.70;;;;;;;;;;5039912;28;20029;-44
2022/12/22 11:29:24;;;;;;;6.93;0.80;;;;;;;;;;5049719;28;20397;-42
2022/12/22 11:32:08;;;;;;;2.67;0.70;;;;;;;;;;5047133;28;20443;-43
2022/12/22 11:34:43;;;;;;;2.38;0.77;;;;;;;;;;5051654;28;20579;-44
2022/12/22 11:37:14;;;;;;;2.95;0.68;;;;;;;;;;5052040;28;20025;-41
2022/12/22 11:39:44;;;;;;;7.28;1.42;;;;;;;;;;5050409;28;20102;-45
2022/12/22 11:42:12;;;;;;;3.13;0.70;;;;;;;;;;5051006;28;20772;-41
2022/12/22 11:44:50;;;;;;;5.07;0.90;;;;;;;;;;5052192;28;20036;-41
2022/12/22 11:47:37;;;;;;;3.95;1.20;;;;;;;;;;5046178;28;20063;-41
2022/12/22 11:50:15;;;;;;;4.07;1.30;;;;;;;;;;5051752;28;20025;-42
2022/12/22 11:52:46;;;;;;;6.88;1.60;;;;;;;;;;5052035;28;20029;-45
2022/12/22 11:55:47;;;;;;;5.45;1.02;;;;;;;;;;5057791;28;20520;-41
2022/12/22 11:58:23;;;;;;;3.95;0.70;;;;;;;;;;5036913;28;20021;-41
2022/12/22 12:00:54;;;;;;;2.53;1.42;;;;;;;;;;5054391;28;20086;-41
2022/12/22 12:03:29;;;;;;;6.03;0.93;;;;;;;;;;5072118;28;20087;-42
2022/12/22 12:06:00;;;;;;;3.20;1.20;;;;;;;;;;5068207;28;20082;-41
2022/12/22 12:08:34;;;;;;;3.55;1.10;;;;;;;;;;5066724;28;20036;-41
2022/12/22 12:11:10;;;;;;;4.32;0.90;;;;;;;;;;5060724;28;20105;-41
2022/12/22 12:13:43;;;;;;;2.85;0.73;;;;;;;;;;5068878;28;20028;-41
2022/12/22 12:16:09;;;;;;;5.22;0.95;;;;;;;;;;5069884;28;20024;-41
2022/12/22 12:18:44;;;;;;;2.80;1.25;;;;;;;;;;5064693;28;20040;-42
2022/12/22 12:21:10;;;;;;;3.05;0.80;;;;;;;;;;5066105;28;20029;-41
2022/12/22 12:23:39;;;;;;;3.70;0.80;;;;;;;;;;5067563;28;20169;-42
2022/12/22 12:26:14;;;;;;;2.60;0.85;;;;;;;;;;5068541;28;20032;-41
2022/12/22 12:28:43;;;;;;;3.50;0.82;;;;;;;;;;5077212;28;20377;-43
2022/12/22 12:31:11;;;;;;;5.05;0.77;;;;;;;;;;5072808;28;20023;-41
2022/12/22 12:33:52;;;;;;;2.15;1.00;;;;;;;;;;5060792;28;20105;-43
2022/12/22 12:36:18;;;;;;;1.95;0.95;;;;;;;;;;5072180;28;20025;-41
2022/12/22 12:38:47;;;;;;;7.93;1.25;;;;;;;;;;5071141;28;20377;-45
2022/12/22 12:41:23;;;;;;;3.72;1.75;;;;;;;;;;5065601;28;20040;-42
2022/12/22 12:43:51;;;;;;;1.92;0.70;;;;;;;;;;5076172;28;20020;-42
2022/12/22 12:46:35;;;;;;;2.83;0.90;;;;;;;;;;5071803;28;20028;-44
2022/12/22 12:49:01;;;;;;;2.33;0.93;;;;;;;;;;5063963;28;20063;-41
2022/12/22 12:52:02;;;;;;;1.70;0.70;;;;;;;;;;5072204;28;20029;-41
2022/12/22 12:54:28;;;;;;;6.50;1.20;;;;;;;;;;5041926;28;20123;-41
2022/12/22 12:57:14;;;;;;;2.65;0.75;;;;;;;;;;5070741;28;20389;-41
2022/12/22 12:59:40;;;;;;;1.25;0.60;;;;;;;;;;5050806;28;20048;-42
2022/12/22 13:02:25;;;;;;;2.58;1.02;;;;;;;;;;5070657;28;20466;-41
2022/12/22 13:05:03;;;;;;;1.80;0.82;;;;;;;;;;5070695;28;20032;-42
2022/12/22 13:07:47;;;;;;;2.92;1.35;;;;;;;;;;5071416;28;20013;-41
2022/12/22 13:10:18;;;;;;;2.22;1.13;;;;;;;;;;5070672;28;20044;-43
2022/12/22 13:12:51;;;;;;;1.02;0.70;;;;;;;;;;5064840;28;20397;-45
2022/12/22 13:15:32;;;;;;;1.75;0.85;;;;;;;;;;5067287;28;20497;-42
2022/12/22 13:17:59;;;;;;;2.28;0.95;;;;;;;;;;5070201;28;20024;-43
2022/12/22 13:20:27;;;;;;;2.75;0.82;;;;;;;;;;5069020;28;20028;-44
2022/12/22 13:22:55;;;;;;;2.88;1.08;;;;;;;;;;5069414;28;20111;-43
2022/12/22 13:25:22;;;;;;;2.58;0.93;;;;;;;;;;5071106;28;20111;-43
2022/12/22 13:27:48;;;;;;;1.85;0.93;;;;;;;;;;5084035;28;20421;-43
2022/12/22 13:30:18;;;;;;;2.83;1.08;;;;;;;;;;5070576;28;20086;-42
2022/12/22 13:32:46;;;;;;;2.20;1.10;;;;;;;;;;5067544;28;20056;-46
2022/12/22 13:35:18;;;;;;;1.10;0.63;;;;;;;;;;5068194;28;20112;-43
2022/12/22 13:37:46;;;;;;;3.28;1.58;;;;;;;;;;5067235;28;20025;-46
2022/12/22 13:40:19;;;;;;;3.65;1.27;;;;;;;;;;5068567;28;20033;-44
2022/12/22 13:42:53;;;;;;;1.65;0.60;;;;;;;;;;5069384;28;20025;-43
2022/12/22 13:45:25;;;;;;;4.68;0.90;;;;;;;;;;5067996;28;20099;-43
2022/12/22 13:47:51;;;;;;;;;;;;;;;;;;5069573;28;20029;-42
2022/12/22 13:50:37;;;;;;;2.47;0.73;;;;;;;;;;5069029;28;19939;-44
2022/12/22 13:53:06;;;;;;;2.38;1.10;;;;;;;;;;5068131;28;20481;-43
2022/12/22 13:55:36;;;;;;;1.45;0.60;;;;;;;;;;5067383;28;20563;-44
2022/12/22 13:58:07;;;;;;;2.85;1.67;;;;;;;;;;5067671;28;20044;-43
2022/12/22 14:00:33;;;;;;;2.00;0.50;;;;;;;;;;5070296;28;20032;-43
2022/12/22 14:02:59;;;;;;;2.33;1.27;;;;;;;;;;5068830;28;20021;-43
2022/12/22 14:05:29;;;;;;;3.05;0.82;;;;;;;;;;5070360;28;20028;-43
2022/12/22 14:08:03;;;;;;;1.75;0.88;;;;;;;;;;5067292;28;20472;-43
2022/12/22 14:10:31;;;;;;;1.60;0.80;;;;;;;;;;5052522;28;20043;-43
2022/12/22 14:12:57;;;;;;;2.20;0.73;;;;;;;;;;5064340;28;20028;-42
2022/12/22 14:15:23;;;;;;;2.78;0.70;;;;;;;;;;5068531;28;20033;-42
2022/12/22 14:17:49;;;;;;;2.17;0.63;;;;;;;;;;5067217;28;20043;-43
2022/12/22 14:20:19;;;;;;;1.52;0.98;;;;;;;;;;5067807;28;20053;-43
2022/12/22 14:22:49;;;;;;;2.40;0.70;;;;;;;;;;5072159;28;20024;-45
2022/12/22 14:25:17;;;;;;;1.23;0.68;;;;;;;;;;5074744;28;20373;-43
2022/12/22 14:27:47;;;;;;;1.67;0.70;;;;;;;;;;5064840;28;20025;-46
2022/12/22 14:30:18;;;;;;;2.88;0.68;;;;;;;;;;5071435;28;20040;-43
2022/12/22 14:32:45;;;;;;;2.22;0.73;;;;;;;;;;5073584;28;20024;-46
2022/12/22 14:35:20;;;;;;;2.72;0.80;;;;;;;;;;5074844;28;20044;-43
2022/12/22 14:37:50;;;;;;;2.25;0.75;;;;;;;;;;5064693;28;20029;-44
2022/12/22 14:40:33;;;;;;;2.95;1.13;;;;;;;;;;5072200;28;20039;-43
2022/12/22 14:43:01;;;;;;;1.75;0.85;;;;;;;;;;5072802;28;20489;-43
2022/12/22 14:45:27;;;;;;;2.47;0.85;;;;;;;;;;5077288;28;20081;-43
2022/12/22 14:47:54;;;;;;;1.63;0.60;;;;;;;;;;5048951;28;20439;-43
2022/12/22 14:50:21;;;;;;;2.00;0.75;;;;;;;;;;5074293;28;20028;-43
2022/12/22 14:53:05;;;;;;;2.70;0.60;;;;;;;;;;5073034;28;20029;-44
2022/12/22 14:55:39;;;;;;;1.15;0.60;;;;;;;;;;5073479;28;20045;-43
2022/12/22 14:58:08;;;;;;;1.75;0.77;;;;;;;;;;5070506;28;20044;-43
2022/12/22 15:00:35;;;;;;;1.70;0.73;;;;;;;;;;5074085;28;20028;-44
2022/12/22 15:03:03;;;;;;;2.67;0.75;;;;;;;;;;5059168;28;20055;-43
2022/12/22 15:05:32;;;;;;;1.55;0.68;;;;;;;;;;5073958;28;20037;-43
2022/12/22 15:07:58;;;;;;;2.38;0.80;;;;;;;;;;5054567;28;20452;-43
2022/12/22 15:10:26;;;;;;;1.33;0.70;;;;;;;;;;5073933;28;20037;-42
2022/12/22 15:12:54;;;;;;;2.85;1.00;;;;;;;;;;5070059;28;20029;-43
2022/12/22 15:15:21;;;;;;;3.80;1.25;;;;;;;;;;5060540;28;20071;-43
2022/12/22 15:17:50;;;;;;;2.78;0.82;;;;;;;;;;5067457;28;20060;-43
2022/12/22 15:20:21;;;;;;;4.43;1.05;;;;;;;;;;5066650;28;20059;-43
2022/12/22 15:22:47;;;;;;;1.52;0.90;;;;;;;;;;5070980;28;20025;-43
2022/12/22 15:25:20;;;;;;;1.70;0.65;;;;;;;;;;5070341;28;20037;-44
2022/12/22 15:27:46;;;;;;;2.83;0.70;;;;;;;;;;5070301;28;20479;-43
2022/12/22 15:30:13;;;;;;;1.88;0.65;;;;;;;;;;5068867;28;20091;-43
2022/12/22 15:32:40;;;;;;;3.05;1.17;;;;;;;;;;5069600;28;20028;-43
2022/12/22 15:35:14;;;;;;;3.50;0.93;;;;;;;;;;5067625;28;20427;-43
2022/12/22 15:37:41;;;;;;;2.95;0.75;;;;;;;;;;5058502;28;20021;-46
2022/12/22 15:40:13;;;;;;;2.10;0.80;;;;;;;;;;5066467;28;20440;-42
2022/12/22 15:42:39;;;;;;;6.80;1.10;;;;;;;;;;5072382;28;20024;-42
2022/12/22 15:45:05;;;;;;;1.80;0.68;;;;;;;;;;5063307;28;20037;-43
2022/12/22 15:47:31;;;;;;;4.18;1.00;;;;;;;;;;5071962;28;20032;-43
2022/12/22 15:49:57;;;;;;;2.20;0.70;;;;;;;;;;5066523;28;20078;-43
2022/12/22 15:52:23;;;;;;;5.13;1.75;;;;;;;;;;5069352;28;20078;-45
2022/12/22 15:54:49;;;;;;;3.47;0.80;;;;;;;;;;5066822;28;20041;-43
2022/12/22 15:57:15;;;;;;;10.23;1.95;;;;;;;;;;5059697;28;20404;-43
2022/12/22 15:59:41;;;;;;;5.50;1.38;;;;;;;;;;5066406;28;20151;-46
2022/12/22 16:02:11;;;;;;;6.75;1.23;;;;;;;;;;5072416;28;20043;-43
2022/12/22 16:04:37;;;;;;;3.33;1.02;;;;;;;;;;5069260;28;20036;-43
2022/12/22 16:07:03;;;;;;;2.05;1.00;;;;;;;;;;5060896;28;20150;-43
2022/12/22 16:09:36;;;;;;;2.63;0.65;;;;;;;;;;5070673;28;20053;-43
2022/12/22 16:12:03;;;;;;;5.28;0.95;;;;;;;;;;5047670;28;20036;-43
2022/12/22 16:14:29;;;;;;;2.40;1.00;;;;;;;;;;5060532;28;20029;-42
2022/12/22 16:16:55;;;;;;;2.72;1.02;;;;;;;;;;5063580;28;20474;-42
2022/12/22 16:19:21;;;;;;;2.83;0.80;;;;;;;;;;5065350;28;20036;-43
2022/12/22 16:21:48;;;;;;;2.50;1.05;;;;;;;;;;5072405;28;20017;-42
2022/12/22 16:24:20;;;;;;;14.63;1.00;;;;;;;;;;5066621;28;20039;-43
2022/12/22 16:26:46;;;;;;;3.60;0.85;;;;;;;;;;5067760;28;20159;-42
2022/12/22 16:29:15;;;;;;;3.13;1.15;;;;;;;;;;5059485;28;20107;-43
2022/12/22 16:31:41;;;;;;;4.15;0.82;;;;;;;;;;5059980;28;20051;-45
2022/12/22 16:34:09;;;;;;;4.60;1.02;;;;;;;;;;5052383;28;20462;-42
2022/12/22 16:36:35;;;;;;;2.28;1.20;;;;;;;;;;5069449;28;20051;-43
2022/12/22 16:39:01;;;;;;;8.32;2.17;;;;;;;;;;5059179;28;20024;-42
2022/12/22 16:41:27;;;;;;;2.30;0.98;;;;;;;;;;5071179;28;20033;-42
2022/12/22 16:43:54;;;;;;;2.35;0.90;;;;;;;;;;5066122;28;20020;-42
2022/12/22 16:46:21;;;;;;;4.78;1.05;;;;;;;;;;5042731;28;20033;-43
2022/12/22 16:48:52;;;;;;;4.32;1.48;;;;;;;;;;5048575;28;20575;-42
2022/12/22 16:51:39;;;;;;;2.50;1.20;;;;;;;;;;5071007;28;20036;-42
2022/12/22 16:54:05;;;;;;;2.20;0.80;;;;;;;;;;5051047;28;20036;-42
2022/12/22 16:56:31;;;;;;;5.78;0.95;;;;;;;;;;5069099;28;20048;-42
2022/12/22 16:58:57;;;;;;;5.70;0.93;;;;;;;;;;5059643;28;20029;-42
2022/12/22 17:01:30;;;;;;;3.92;1.58;;;;;;;;;;5066639;28;20083;-43
2022/12/22 17:03:57;;;;;;;1.92;0.85;;;;;;;;;;5068894;28;20028;-42
2022/12/22 17:06:32;;;;;;;4.18;1.15;;;;;;;;;;5053368;28;20504;-36
2022/12/22 17:08:58;;;;;;;4.07;0.80;;;;;;;;;;5065833;28;20040;-35
2022/12/22 17:11:28;;;;;;;3.58;1.30;;;;;;;;;;5059902;28;20038;-36
2022/12/22 17:13:58;;;;;;;3.00;1.02;;;;;;;;;;5064298;28;20025;-43
2022/12/22 17:16:24;;;;;;;4.47;1.25;;;;;;;;;;5063201;28;20492;-42
2022/12/22 17:18:51;;;;;;;4.18;1.35;;;;;;;;;;5063636;28;20017;-44
2022/12/22 17:21:18;;;;;;;9.27;1.35;;;;;;;;;;5064565;28;20068;-44
2022/12/22 17:23:46;;;;;;;2.67;0.70;;;;;;;;;;5058758;28;20078;-43
2022/12/22 17:26:15;;;;;;;5.72;1.77;;;;;;;;;;5062945;28;20049;-43
2022/12/22 17:28:41;;;;;;;7.75;1.83;;;;;;;;;;5068810;28;20067;-44
2022/12/22 17:31:07;;;;;;;8.43;1.80;;;;;;;;;;5064774;28;20036;-42
2022/12/22 17:33:33;;;;;;;5.97;1.30;;;;;;;;;;5070125;28;20038;-43
2022/12/22 17:35:59;;;;;;;2.88;0.88;;;;;;;;;;5066612;28;20033;-42
2022/12/22 17:38:27;;;;;;;4.93;1.90;;;;;;;;;;5069588;28;20033;-43
2022/12/22 17:40:55;;;;;;;4.00;1.50;;;;;;;;;;5069257;28;20458;-42
2022/12/22 17:43:21;;;;;;;5.15;1.77;;;;;;;;;;5063108;28;20024;-43
2022/12/22 17:45:47;;;;;;;3.97;1.83;;;;;;;;;;5057424;28;20049;-45
2022/12/22 17:48:14;;;;;;;5.97;1.20;;;;;;;;;;5054073;28;21260;-44
2022/12/22 17:50:41;;;;;;;3.13;1.25;;;;;;;;;;5065473;28;20033;-46
2022/12/22 17:53:10;;;;;;;4.78;1.67;;;;;;;;;;5061244;28;20025;-43
2022/12/22 17:55:36;;;;;;;3.65;1.00;;;;;;;;;;5061589;28;20041;-43
2022/12/22 17:58:02;;;;;;;3.88;1.20;;;;;;;;;;5053275;28;20078;-43
2022/12/22 18:00:29;;;;;;;4.90;1.50;;;;;;;;;;5066923;28;20466;-42
2022/12/22 18:02:55;;;;;;;15.68;2.08;;;;;;;;;;5059889;28;20037;-45
2022/12/22 18:05:22;;;;;;;4.28;1.40;;;;;;;;;;5066436;28;20060;-44
2022/12/22 18:07:49;;;;;;;3.53;1.15;;;;;;;;;;5067077;28;20043;-43
2022/12/22 18:10:29;;;;;;;3.75;1.40;;;;;;;;;;5062768;28;20024;-43
2022/12/22 18:12:56;;;;;;;2.97;1.10;;;;;;;;;;5064479;28;20141;-44
2022/12/22 18:15:23;;;;;;;4.45;2.20;;;;;;;;;;5049629;28;20033;-44
2022/12/22 18:17:49;;;;;;;3.28;1.50;;;;;;;;;;5041120;28;20399;-42
2022/12/22 18:20:16;;;;;;;3.92;1.30;;;;;;;;;;5052350;28;20017;-45
2022/12/22 18:22:42;;;;;;;5.57;2.13;;;;;;;;;;5044590;28;20664;-46
2022/12/22 18:25:15;;;;;;;3.22;1.42;;;;;;;;;;5048577;28;20037;-43
2022/12/22 18:27:41;;;;;;;6.25;2.35;;;;;;;;;;5052025;28;20166;-47
2022/12/22 18:30:15;;;;;;;5.28;1.67;;;;;;;;;;5041983;28;20148;-44